createdAt,value
2022-10-12T00:00:01.642Z,77.58
2022-10-12T00:02:39.168Z,77.85
2022-10-12T00:05:06.660Z,77.74
2022-10-12T00:07:33.993Z,77.62
2022-10-12T00:10:01.284Z,77.72
2022-10-12T00:12:28.474Z,77.28
2022-10-12T00:14:55.630Z,77.96
2022-10-12T00:17:23.103Z,78.05
2022-10-12T00:19:51.288Z,78.28
2022-10-12T00:22:18.679Z,78.31
2022-10-12T00:24:45.996Z,77.93
2022-10-12T00:27:13.427Z,78.29
2022-10-12T00:29:40.642Z,77.90
2022-10-12T00:32:07.975Z,78.32
2022-10-12T00:34:35.187Z,78.31
2022-10-12T00:37:02.196Z,78.19
2022-10-12T00:39:29.372Z,78.00
2022-10-12T00:41:56.582Z,77.90
2022-10-12T00:44:55.915Z,77.72
2022-10-12T00:47:33.944Z,78.47
2022-10-12T00:50:11.784Z,78.09
2022-10-12T00:53:20.860Z,77.92
2022-10-12T00:55:54.257Z,77.99
2022-10-12T00:58:22.856Z,78.84
2022-10-12T01:00:51.244Z,78.78
2022-10-12T01:03:21.683Z,78.71
2022-10-12T01:05:49.002Z,78.82
2022-10-12T01:08:16.282Z,78.63
2022-10-12T01:10:43.710Z,78.99
2022-10-12T01:13:12.887Z,78.85
2022-10-12T01:15:53.330Z,78.33
2022-10-12T01:18:30.262Z,78.59
2022-10-12T01:21:09.253Z,79.18
2022-10-12T01:24:01.297Z,78.95
2022-10-12T01:26:57.754Z,79.16
2022-10-12T01:29:53.314Z,78.76
2022-10-12T01:32:44.878Z,78.66
2022-10-12T01:35:27.068Z,79.16
2022-10-12T01:38:18.826Z,79.01
2022-10-12T01:41:14.046Z,78.96
2022-10-12T01:43:43.325Z,79.01
2022-10-12T01:46:13.198Z,78.99
2022-10-12T01:48:41.165Z,79.66
2022-10-12T01:51:12.186Z,79.76
2022-10-12T01:53:56.962Z,79.46
2022-10-12T01:56:48.670Z,79.60
2022-10-12T01:59:20.878Z,79.18
2022-10-12T02:02:06.856Z,79.28
2022-10-12T02:04:46.932Z,79.18
2022-10-12T02:07:49.918Z,79.01
2022-10-12T02:10:25.051Z,79.28
2022-10-12T02:12:55.026Z,79.67
2022-10-12T02:15:24.654Z,79.17
2022-10-12T02:17:53.455Z,79.31
2022-10-12T02:20:23.754Z,79.43
2022-10-12T02:22:52.027Z,79.75
2022-10-12T02:25:23.376Z,79.42
2022-10-12T02:27:59.681Z,79.38
2022-10-12T02:30:27.492Z,79.68
2022-10-12T02:33:12.533Z,79.63
2022-10-12T02:35:50.545Z,79.61
2022-10-12T02:38:27.893Z,79.55
2022-10-12T02:41:01.684Z,79.78
2022-10-12T02:43:37.614Z,79.48
2022-10-12T02:46:08.693Z,79.56
2022-10-12T02:48:39.436Z,79.00
2022-10-12T02:51:09.017Z,79.49
2022-10-12T02:53:36.716Z,79.33
2022-10-12T02:56:07.198Z,80.06
2022-10-12T02:58:34.567Z,79.90
2022-10-12T03:01:01.742Z,79.92
2022-10-12T03:03:30.596Z,79.93
2022-10-12T03:05:57.936Z,80.24
2022-10-12T03:08:24.989Z,80.09
2022-10-12T03:10:52.214Z,80.16
2022-10-12T03:13:19.734Z,80.32
2022-10-12T03:15:46.934Z,80.48
2022-10-12T03:18:14.344Z,80.12
2022-10-12T03:20:41.490Z,80.07
2022-10-12T03:23:08.572Z,79.70
2022-10-12T03:25:35.988Z,79.74
2022-10-12T03:28:03.196Z,79.70
2022-10-12T03:30:30.727Z,79.42
2022-10-12T03:32:57.818Z,79.44
2022-10-12T03:35:25.197Z,80.04
2022-10-12T03:37:52.522Z,79.92
2022-10-12T03:40:19.816Z,79.87
2022-10-12T03:42:46.905Z,79.87
2022-10-12T03:45:14.374Z,79.72
2022-10-12T03:47:41.661Z,80.08
2022-10-12T03:50:09.240Z,79.96
2022-10-12T03:52:36.581Z,80.11
2022-10-12T03:55:03.942Z,79.67
2022-10-12T03:57:31.364Z,79.87
2022-10-12T03:59:58.663Z,79.72
2022-10-12T04:02:25.829Z,79.97
2022-10-12T04:04:54.357Z,79.62
2022-10-12T04:07:21.798Z,79.50
2022-10-12T04:09:49.024Z,79.60
2022-10-12T04:12:16.477Z,79.67
2022-10-12T04:14:43.614Z,79.42
2022-10-12T04:17:10.733Z,79.52
2022-10-12T04:19:38.098Z,79.73
2022-10-12T04:22:05.404Z,79.63
2022-10-12T04:24:32.708Z,79.83
2022-10-12T04:27:00.005Z,79.76
2022-10-12T04:29:27.364Z,79.95
2022-10-12T04:31:54.841Z,79.95
2022-10-12T04:34:21.942Z,79.67
2022-10-12T04:36:49.013Z,79.80
2022-10-12T04:39:16.431Z,79.87
2022-10-12T04:41:44.876Z,80.15
2022-10-12T04:44:12.022Z,80.19
2022-10-12T04:46:39.184Z,80.68
2022-10-12T04:49:06.385Z,80.78
2022-10-12T04:51:33.754Z,80.93
2022-10-12T04:54:02.265Z,81.46
2022-10-12T04:56:29.472Z,81.21
2022-10-12T04:58:56.745Z,80.66
2022-10-12T05:01:24.332Z,80.38
2022-10-12T05:03:51.686Z,80.19
2022-10-12T05:06:18.933Z,80.14
2022-10-12T05:08:46.044Z,80.10
2022-10-12T05:11:13.238Z,80.40
2022-10-12T05:13:40.323Z,80.59
2022-10-12T05:16:07.917Z,80.18
2022-10-12T05:18:35.423Z,79.72
2022-10-12T05:21:02.512Z,80.54
2022-10-12T05:23:29.724Z,80.66
2022-10-12T05:25:57.302Z,80.76
2022-10-12T05:28:25.403Z,80.50
2022-10-12T05:30:53.657Z,80.71
2022-10-12T05:33:21.007Z,80.69
2022-10-12T05:35:53.328Z,80.45
2022-10-12T05:38:22.150Z,80.41
2022-10-12T05:40:49.523Z,80.68
2022-10-12T05:43:16.656Z,80.78
2022-10-12T05:45:43.954Z,80.82
2022-10-12T05:48:11.165Z,80.87
2022-10-12T05:50:38.351Z,81.06
2022-10-12T05:53:05.422Z,81.30
2022-10-12T05:55:32.727Z,80.98
2022-10-12T05:58:00.165Z,81.17
2022-10-12T06:00:27.301Z,81.04
2022-10-12T06:02:54.433Z,81.06
2022-10-12T06:05:21.654Z,81.02
2022-10-12T06:07:49.194Z,81.04
2022-10-12T06:10:16.551Z,80.84
2022-10-12T06:12:43.984Z,80.87
2022-10-12T06:15:11.382Z,81.31
2022-10-12T06:17:38.844Z,81.15
2022-10-12T06:20:06.526Z,81.17
2022-10-12T06:22:33.784Z,81.44
2022-10-12T06:25:01.105Z,81.07
2022-10-12T06:27:28.253Z,81.69
2022-10-12T06:29:55.373Z,80.93
2022-10-12T06:32:22.628Z,81.69
2022-10-12T06:34:49.984Z,81.29
2022-10-12T06:37:44.402Z,81.43
2022-10-12T06:40:06.107Z,81.21
2022-10-12T06:42:33.225Z,81.08
2022-10-12T06:45:00.435Z,81.02
2022-10-12T06:47:27.854Z,81.42
2022-10-12T06:49:54.975Z,81.18
2022-10-12T06:52:22.323Z,81.37
2022-10-12T06:54:50.745Z,81.43
2022-10-12T06:57:18.002Z,81.31
2022-10-12T06:59:45.189Z,80.74
2022-10-12T07:02:12.523Z,81.04
2022-10-12T07:04:39.802Z,81.11
2022-10-12T07:07:06.913Z,80.52
2022-10-12T07:09:34.403Z,80.82
2022-10-12T07:12:01.703Z,80.92
2022-10-12T07:14:28.986Z,80.85
2022-10-12T07:16:56.092Z,80.78
2022-10-12T07:19:23.114Z,80.52
2022-10-12T07:21:50.385Z,80.55
2022-10-12T07:24:17.663Z,80.49
2022-10-12T07:26:44.988Z,80.32
2022-10-12T07:29:12.147Z,79.79
2022-10-12T07:31:39.473Z,79.78
2022-10-12T07:34:06.707Z,80.11
2022-10-12T07:36:57.551Z,79.88
2022-10-12T07:39:23.814Z,79.96
2022-10-12T07:41:52.304Z,79.62
2022-10-12T07:44:21.065Z,79.16
2022-10-12T07:46:48.595Z,79.37
2022-10-12T07:49:16.973Z,79.16
2022-10-12T07:51:44.654Z,79.05
2022-10-12T07:54:15.312Z,79.11
2022-10-12T07:56:44.861Z,78.66
2022-10-12T07:59:12.024Z,78.68
2022-10-12T08:01:39.294Z,78.68
2022-10-12T08:04:06.737Z,78.46
2022-10-12T08:06:34.567Z,77.91
2022-10-12T08:09:02.666Z,77.76
2022-10-12T08:11:30.339Z,76.50
2022-10-12T08:13:57.581Z,76.37
2022-10-12T08:16:24.942Z,76.14
2022-10-12T08:18:52.377Z,75.68
2022-10-12T08:21:19.887Z,75.66
2022-10-12T08:23:47.515Z,75.04
2022-10-12T08:26:16.087Z,76.06
2022-10-12T08:28:43.687Z,74.23
2022-10-12T08:31:16.974Z,74.24
2022-10-12T08:33:44.238Z,74.61
2022-10-12T08:36:12.735Z,74.07
2022-10-12T08:38:40.513Z,73.52
2022-10-12T08:41:17.341Z,73.20
2022-10-12T08:44:12.574Z,73.77
2022-10-12T08:46:39.935Z,72.89
2022-10-12T08:49:15.613Z,71.64
2022-10-12T08:52:01.327Z,71.57
2022-10-12T08:54:41.975Z,70.96
2022-10-12T08:57:19.708Z,70.15
2022-10-12T08:59:47.716Z,70.64
2022-10-12T09:02:14.977Z,70.33
2022-10-12T09:04:59.596Z,69.42
2022-10-12T09:07:30.840Z,70.23
2022-10-12T09:10:30.825Z,69.10
2022-10-12T09:13:23.242Z,69.04
2022-10-12T09:16:02.507Z,68.81
2022-10-12T09:18:41.859Z,68.23
2022-10-12T09:21:18.426Z,67.00
2022-10-12T09:23:47.084Z,67.99
2022-10-12T09:26:14.160Z,67.52
2022-10-12T09:28:51.264Z,67.17
2022-10-12T09:31:41.934Z,67.02
2022-10-12T09:34:10.425Z,66.37
2022-10-12T09:36:40.110Z,66.58
2022-10-12T09:39:15.460Z,67.25
2022-10-12T09:41:44.787Z,66.70
2022-10-12T09:44:40.424Z,66.91
2022-10-12T09:47:30.495Z,67.11
2022-10-12T09:50:04.486Z,66.81
2022-10-12T09:52:37.651Z,65.90
2022-10-12T09:55:15.329Z,65.28
2022-10-12T09:57:52.105Z,65.48
2022-10-12T10:00:29.442Z,65.44
2022-10-12T10:02:57.613Z,65.39
2022-10-12T10:05:26.564Z,64.78
2022-10-12T10:07:54.314Z,64.36
2022-10-12T10:10:29.892Z,64.24
2022-10-12T10:12:59.266Z,64.28
2022-10-12T10:15:34.195Z,63.88
2022-10-12T10:18:08.611Z,64.26
2022-10-12T10:20:53.646Z,63.40
2022-10-12T10:23:27.334Z,63.87
2022-10-12T10:26:03.886Z,64.37
2022-10-12T10:28:39.347Z,64.67
2022-10-12T10:31:22.643Z,63.69
2022-10-12T10:34:07.900Z,63.08
2022-10-12T10:36:40.186Z,62.90
2022-10-12T10:39:20.804Z,62.51
2022-10-12T10:41:48.946Z,62.02
2022-10-12T10:44:25.035Z,62.47
2022-10-12T10:46:53.771Z,62.05
2022-10-12T10:49:34.580Z,61.67
2022-10-12T10:52:03.147Z,61.65
2022-10-12T10:54:33.295Z,61.86
2022-10-12T10:57:05.164Z,62.15
2022-10-12T10:59:53.772Z,61.98
2022-10-12T11:02:44.911Z,61.66
2022-10-12T11:05:20.232Z,61.90
2022-10-12T11:07:52.134Z,61.81
2022-10-12T11:10:24.569Z,61.09
2022-10-12T11:13:12.724Z,61.26
2022-10-12T11:15:51.074Z,60.70
2022-10-12T11:18:45.348Z,59.97
2022-10-12T11:21:18.608Z,60.46
2022-10-12T11:24:05.435Z,60.34
2022-10-12T11:26:45.429Z,59.92
2022-10-12T11:29:15.062Z,60.10
2022-10-12T11:32:08.435Z,60.36
2022-10-12T11:34:51.862Z,59.21
2022-10-12T11:37:22.913Z,59.47
2022-10-12T11:39:53.990Z,59.87
2022-10-12T11:42:35.048Z,58.98
2022-10-12T11:45:07.096Z,59.16
2022-10-12T11:47:44.495Z,58.18
2022-10-12T11:50:29.589Z,58.39
2022-10-12T11:52:58.605Z,58.31
2022-10-12T11:55:44.264Z,57.19
2022-10-12T11:58:36.370Z,56.95
2022-10-12T12:01:40.603Z,56.03
2022-10-12T12:04:43.416Z,56.10
2022-10-12T12:07:50.910Z,54.13
2022-10-12T12:10:27.838Z,53.40
2022-10-12T12:13:13.209Z,54.72
2022-10-12T12:15:47.693Z,55.39
2022-10-12T12:18:29.374Z,55.78
2022-10-12T12:21:04.884Z,55.58
2022-10-12T12:23:57.888Z,55.43
2022-10-12T12:26:30.423Z,54.72
2022-10-12T12:29:25.328Z,54.11
2022-10-12T12:32:01.929Z,54.41
2022-10-12T12:34:29.543Z,55.09
2022-10-12T12:36:58.675Z,55.82
2022-10-12T12:39:30.865Z,55.85
2022-10-12T12:42:06.729Z,55.99
2022-10-12T12:44:36.893Z,56.39
2022-10-12T12:47:08.465Z,56.58
2022-10-12T12:49:57.889Z,56.70
2022-10-12T12:52:24.967Z,56.57
2022-10-12T12:55:14.995Z,55.76
2022-10-12T12:58:00.774Z,56.16
2022-10-12T13:00:54.050Z,56.43
2022-10-12T13:03:27.319Z,56.68
2022-10-12T13:06:16.054Z,54.80
2022-10-12T13:09:04.936Z,53.53
2022-10-12T13:11:57.922Z,53.54
2022-10-12T13:14:59.727Z,53.55
2022-10-12T13:17:42.969Z,54.69
2022-10-12T13:20:23.242Z,54.93
2022-10-12T13:22:54.740Z,54.92
2022-10-12T13:25:40.568Z,54.62
2022-10-12T13:28:13.573Z,54.35
2022-10-12T13:31:00.815Z,54.13
2022-10-12T13:33:37.423Z,54.26
2022-10-12T13:36:19.796Z,54.26
2022-10-12T13:38:47.008Z,54.77
2022-10-12T13:41:19.304Z,55.42
2022-10-12T13:43:50.451Z,55.76
2022-10-12T13:46:35.537Z,56.07
2022-10-12T13:49:04.071Z,55.72
2022-10-12T13:51:32.075Z,55.87
2022-10-12T13:53:59.319Z,56.04
2022-10-12T13:56:29.472Z,55.83
2022-10-12T13:59:05.372Z,55.36
2022-10-12T14:01:48.684Z,55.11
2022-10-12T14:04:15.857Z,55.75
2022-10-12T14:06:48.084Z,56.06
2022-10-12T14:09:23.097Z,56.33
2022-10-12T14:11:51.798Z,56.13
2022-10-12T14:14:33.663Z,56.46
2022-10-12T14:17:01.526Z,56.39
2022-10-12T14:19:53.553Z,56.14
2022-10-12T14:22:30.273Z,56.14
2022-10-12T14:25:28.245Z,56.38
2022-10-12T14:28:05.075Z,56.71
2022-10-12T14:30:35.612Z,56.61
2022-10-12T14:33:10.984Z,56.98
2022-10-12T14:35:42.277Z,56.75
2022-10-12T14:38:39.154Z,56.82
2022-10-12T14:41:34.977Z,57.97
2022-10-12T14:44:20.687Z,58.62
2022-10-12T14:46:55.688Z,58.16
2022-10-12T14:49:32.673Z,58.17
2022-10-12T14:52:00.987Z,57.53
2022-10-12T14:54:28.114Z,57.51
2022-10-12T14:57:11.392Z,58.34
2022-10-12T14:59:38.742Z,58.16
2022-10-12T15:02:18.173Z,57.94
2022-10-12T15:04:46.433Z,58.47
2022-10-12T15:07:25.415Z,58.40
2022-10-12T15:09:52.983Z,58.32
2022-10-12T15:12:23.396Z,58.79
2022-10-12T15:14:57.553Z,59.24
2022-10-12T15:17:24.723Z,59.08
2022-10-12T15:19:53.097Z,58.79
2022-10-12T15:22:21.634Z,59.41
2022-10-12T15:24:49.794Z,60.01
2022-10-12T15:27:16.995Z,59.78
2022-10-12T15:29:44.458Z,60.24
2022-10-12T15:32:13.767Z,61.28
2022-10-12T15:34:42.858Z,60.50
2022-10-12T15:37:10.174Z,61.14
2022-10-12T15:39:37.703Z,60.74
2022-10-12T15:42:05.314Z,60.14
2022-10-12T15:44:39.293Z,60.56
2022-10-12T15:47:06.433Z,60.46
2022-10-12T15:49:33.516Z,61.30
2022-10-12T15:52:00.762Z,62.35
2022-10-12T15:54:27.908Z,63.66
2022-10-12T15:56:55.145Z,64.05
2022-10-12T15:59:22.313Z,64.05
2022-10-12T16:01:49.467Z,64.25
2022-10-12T16:04:17.114Z,64.33
2022-10-12T16:06:44.296Z,64.65
2022-10-12T16:09:11.630Z,64.29
2022-10-12T16:11:38.835Z,64.85
2022-10-12T16:14:06.762Z,64.19
2022-10-12T16:16:33.890Z,64.81
2022-10-12T16:19:01.092Z,65.36
2022-10-12T16:21:28.244Z,65.78
2022-10-12T16:23:55.523Z,66.29
2022-10-12T16:26:22.675Z,67.08
2022-10-12T16:28:50.111Z,67.43
2022-10-12T16:31:18.135Z,67.47
2022-10-12T16:33:46.180Z,67.66
2022-10-12T16:36:15.838Z,67.74
2022-10-12T16:38:43.870Z,67.56
2022-10-12T16:41:12.733Z,67.76
2022-10-12T16:43:40.415Z,68.13
2022-10-12T16:46:08.253Z,68.47
2022-10-12T16:48:35.666Z,68.77
2022-10-12T16:51:10.301Z,69.61
2022-10-12T16:53:37.758Z,70.08
2022-10-12T16:56:05.543Z,70.28
2022-10-12T16:58:33.449Z,70.71
2022-10-12T17:01:13.734Z,70.62
2022-10-12T17:03:41.227Z,70.51
2022-10-12T17:06:09.013Z,70.32
2022-10-12T17:08:39.008Z,70.77
2022-10-12T17:11:11.636Z,70.76
2022-10-12T17:13:44.039Z,70.29
2022-10-12T17:16:32.379Z,70.52
2022-10-12T17:18:59.888Z,70.96
2022-10-12T17:21:28.069Z,71.40
2022-10-12T17:24:00.188Z,71.75
2022-10-12T17:26:27.674Z,71.55
2022-10-12T17:28:55.832Z,71.61
2022-10-12T17:31:23.483Z,71.66
2022-10-12T17:33:50.644Z,71.55
2022-10-12T17:36:18.124Z,72.03
2022-10-12T17:38:48.076Z,72.66
2022-10-12T17:41:15.230Z,72.58
2022-10-12T17:43:42.486Z,72.64
2022-10-12T17:46:09.542Z,72.85
2022-10-12T17:48:36.757Z,73.06
2022-10-12T17:51:09.773Z,72.75
2022-10-12T17:53:37.177Z,72.69
2022-10-12T17:56:05.804Z,73.26
2022-10-12T17:58:33.364Z,73.13
2022-10-12T18:01:09.541Z,73.31
2022-10-12T18:03:38.234Z,73.77
2022-10-12T18:06:13.669Z,73.50
2022-10-12T18:08:40.863Z,73.77
2022-10-12T18:11:08.622Z,73.97
2022-10-12T18:13:37.488Z,73.82
2022-10-12T18:16:10.856Z,73.73
2022-10-12T18:18:39.206Z,74.16
2022-10-12T18:21:07.968Z,74.07
2022-10-12T18:23:35.468Z,73.99
2022-10-12T18:26:07.045Z,74.12
2022-10-12T18:28:34.853Z,74.15
2022-10-12T18:31:04.140Z,74.64
2022-10-12T18:33:32.324Z,74.69
2022-10-12T18:36:04.509Z,74.58
2022-10-12T18:38:32.752Z,74.55
2022-10-12T18:41:11.901Z,74.41
2022-10-12T18:43:39.463Z,74.39
2022-10-12T18:46:14.772Z,75.17
2022-10-12T18:48:42.125Z,75.27
2022-10-12T18:51:16.796Z,75.48
2022-10-12T18:53:44.007Z,75.16
2022-10-12T18:56:11.472Z,75.17
2022-10-12T18:58:38.646Z,75.05
2022-10-12T19:01:10.950Z,75.80
2022-10-12T19:03:38.797Z,75.48
2022-10-12T19:06:16.752Z,75.43
2022-10-12T19:08:44.926Z,75.34
2022-10-12T19:11:13.076Z,75.70
2022-10-12T19:13:41.194Z,75.75
2022-10-12T19:16:11.513Z,75.86
2022-10-12T19:18:38.871Z,75.47
2022-10-12T19:21:14.988Z,75.23
2022-10-12T19:23:43.264Z,75.44
2022-10-12T19:26:13.827Z,75.66
2022-10-12T19:28:41.373Z,75.81
2022-10-12T19:31:14.935Z,76.58
2022-10-12T19:33:42.974Z,76.42
2022-10-12T19:36:11.952Z,76.36
2022-10-12T19:38:39.912Z,76.28
2022-10-12T19:41:08.327Z,75.88
2022-10-12T19:43:37.023Z,76.28
2022-10-12T19:46:10.069Z,76.60
2022-10-12T19:48:38.902Z,76.62
2022-10-12T19:51:10.674Z,76.95
2022-10-12T19:53:39.193Z,76.92
2022-10-12T19:56:12.352Z,77.19
2022-10-12T19:58:39.674Z,76.56
2022-10-12T20:01:13.083Z,76.65
2022-10-12T20:03:45.359Z,76.77
2022-10-12T20:06:14.878Z,76.93
2022-10-12T20:08:43.563Z,77.11
2022-10-12T20:11:17.680Z,76.94
2022-10-12T20:13:47.062Z,76.87
2022-10-12T20:16:15.003Z,77.36
2022-10-12T20:18:42.589Z,77.44
2022-10-12T20:21:11.497Z,77.63
2022-10-12T20:23:40.347Z,78.07
2022-10-12T20:26:09.943Z,77.88
2022-10-12T20:28:37.926Z,77.44
2022-10-12T20:31:07.234Z,78.04
2022-10-12T20:33:36.217Z,77.91
2022-10-12T20:36:07.655Z,78.24
2022-10-12T20:38:34.882Z,77.97
2022-10-12T20:41:06.709Z,77.66
2022-10-12T20:43:34.319Z,78.25
2022-10-12T20:46:05.939Z,78.19
2022-10-12T20:48:33.619Z,78.04
2022-10-12T20:51:04.965Z,78.28
2022-10-12T20:53:33.724Z,78.35
2022-10-12T20:56:04.550Z,78.20
2022-10-12T20:58:31.659Z,77.95
2022-10-12T21:01:03.703Z,78.20
2022-10-12T21:03:30.950Z,77.81
2022-10-12T21:06:03.071Z,78.31
2022-10-12T21:08:30.271Z,78.28
2022-10-12T21:10:57.674Z,78.15
2022-10-12T21:13:25.104Z,77.78
2022-10-12T21:15:53.642Z,78.01
2022-10-12T21:18:22.062Z,78.79
2022-10-12T21:21:19.240Z,78.76
2022-10-12T21:23:55.800Z,78.80
2022-10-12T21:26:25.104Z,78.64
2022-10-12T21:28:52.638Z,77.87
2022-10-12T21:31:20.649Z,77.93
2022-10-12T21:33:48.148Z,78.50
2022-10-12T21:36:20.887Z,78.56
2022-10-12T21:38:50.445Z,78.68
2022-10-12T21:41:19.926Z,78.37
2022-10-12T21:43:49.389Z,78.74
2022-10-12T21:46:24.667Z,78.36
2022-10-12T21:48:52.797Z,78.78
2022-10-12T21:51:21.526Z,78.42
2022-10-12T21:53:50.474Z,78.71
2022-10-12T21:56:20.697Z,78.49
2022-10-12T21:58:49.673Z,78.88
2022-10-12T22:01:22.476Z,78.43
2022-10-12T22:03:58.316Z,79.00
2022-10-12T22:06:27.936Z,78.19
2022-10-12T22:08:59.824Z,78.73
2022-10-12T22:11:29.848Z,78.57
2022-10-12T22:14:00.816Z,78.01
2022-10-12T22:16:30.028Z,78.46
2022-10-12T22:18:59.878Z,78.32
2022-10-12T22:21:33.053Z,78.90
2022-10-12T22:24:00.792Z,78.69
2022-10-12T22:26:28.796Z,78.33
2022-10-12T22:28:59.467Z,78.67
2022-10-12T22:31:27.058Z,78.20
2022-10-12T22:33:56.160Z,78.75
2022-10-12T22:36:23.535Z,78.92
2022-10-12T22:38:50.897Z,78.83
2022-10-12T22:41:20.732Z,78.81
2022-10-12T22:43:53.786Z,79.01
2022-10-12T22:46:23.226Z,79.48
2022-10-12T22:48:52.975Z,78.56
2022-10-12T22:51:31.325Z,79.42
2022-10-12T22:53:59.174Z,78.70
2022-10-12T22:56:26.522Z,78.85
2022-10-12T22:58:58.545Z,78.91
2022-10-12T23:01:26.848Z,79.13
2022-10-12T23:03:55.397Z,79.49
2022-10-12T23:06:23.336Z,79.28
2022-10-12T23:08:50.821Z,79.14
2022-10-12T23:11:20.514Z,78.84
2022-10-12T23:13:48.483Z,79.06
2022-10-12T23:16:19.288Z,79.10
2022-10-12T23:18:46.822Z,79.10
2022-10-12T23:21:18.134Z,79.35
2022-10-12T23:23:46.703Z,79.78
2022-10-12T23:26:16.861Z,79.92
2022-10-12T23:28:44.380Z,79.26
2022-10-12T23:31:21.045Z,79.61
2022-10-12T23:33:55.727Z,79.50
2022-10-12T23:36:23.247Z,79.96
2022-10-12T23:38:50.444Z,79.46
2022-10-12T23:41:17.647Z,79.63
2022-10-12T23:43:45.142Z,79.58
2022-10-12T23:46:13.280Z,80.24
2022-10-12T23:48:41.061Z,80.45
2022-10-12T23:51:09.605Z,79.80
2022-10-12T23:53:37.639Z,79.81
2022-10-12T23:56:06.206Z,79.68
2022-10-12T23:58:35.515Z,79.80
